Time;durP1;ratioP1;P1;durP2;ratioP2;P2;SDS_P1;SDS_P2;PMS_P1;PMS_P2;Temp;Humidity;BMP_temperature;BMP_pressure;BME280_temperature;BME280_humidity;BME280_pressure;Samples;Min_cycle;Max_cycle;Signal;HPM_P1;HPM_P2
2022/06/27 00:01:07;;;;;;;0.50;0.30;;;18.70;99.90;;;;;;5120772;28;20430;-85
2022/06/27 00:03:34;;;;;;;0.67;0.67;;;18.70;99.90;;;;;;5160928;22;21133;-79
2022/06/27 00:06:01;;;;;;;0.50;0.40;;;18.60;99.90;;;;;;5054854;28;20965;-79
2022/06/27 00:08:28;;;;;;;0.50;0.30;;;18.60;99.90;;;;;;5065708;28;20464;-79
2022/06/27 00:10:56;;;;;;;0.50;0.30;;;18.60;99.90;;;;;;5073585;28;20522;-79
2022/06/27 00:13:23;;;;;;;0.50;0.30;;;18.60;99.90;;;;;;5073504;28;20917;-79
2022/06/27 00:15:50;;;;;;;0.50;0.40;;;18.60;99.90;;;;;;5073962;28;20432;-79
2022/06/27 00:18:17;;;;;;;0.50;0.40;;;18.70;99.90;;;;;;5072803;28;20474;-78
2022/06/27 00:20:44;;;;;;;0.50;0.30;;;18.70;99.90;;;;;;5073532;28;20515;-78
2022/06/27 00:23:11;;;;;;;0.50;0.30;;;18.70;99.90;;;;;;5073632;28;20475;-78
2022/06/27 00:25:38;;;;;;;0.50;0.40;;;18.70;99.90;;;;;;5073413;28;20523;-78
2022/06/27 00:28:06;;;;;;;0.50;0.40;;;18.70;99.90;;;;;;5072277;28;20443;-76
2022/06/27 00:30:33;;;;;;;0.50;0.30;;;18.70;99.90;;;;;;5074628;28;20993;-79
2022/06/27 00:33:00;;;;;;;0.50;0.30;;;18.60;99.90;;;;;;5074330;28;20446;-78
2022/06/27 00:35:27;;;;;;;0.50;0.37;;;18.60;99.90;;;;;;5075323;28;20533;-79
2022/06/27 00:37:53;;;;;;;0.50;0.30;;;18.60;99.90;;;;;;5075792;28;20467;-80
2022/06/27 00:40:20;;;;;;;0.50;0.40;;;18.60;99.90;;;;;;5074204;28;20443;-79
2022/06/27 00:42:47;;;;;;;0.50;0.40;;;18.60;99.90;;;;;;5074061;28;20432;-79
2022/06/27 00:45:15;;;;;;;0.50;0.37;;;18.60;99.90;;;;;;5073814;28;20543;-79
2022/06/27 00:47:42;;;;;;;0.50;0.30;;;18.60;99.90;;;;;;5072702;28;20520;-79
2022/06/27 00:50:10;;;;;;;0.50;0.40;;;18.60;99.90;;;;;;5072865;28;20785;-78
2022/06/27 00:52:38;;;;;;;0.50;0.30;;;18.60;99.90;;;;;;5072848;28;20440;-79
2022/06/27 00:55:06;;;;;;;0.50;0.40;;;18.60;99.90;;;;;;5072832;28;20462;-80
2022/06/27 00:57:33;;;;;;;0.50;0.30;;;18.60;99.90;;;;;;5072530;28;20558;-78
2022/06/27 01:00:00;;;;;;;1.37;1.33;;;18.50;99.90;;;;;;5072844;28;20527;-79
2022/06/27 01:02:28;;;;;;;0.50;0.40;;;18.60;99.90;;;;;;5072522;28;20539;-80
2022/06/27 01:04:55;;;;;;;0.50;0.40;;;18.60;99.90;;;;;;5073373;28;20474;-80
2022/06/27 01:07:22;;;;;;;0.50;0.30;;;18.50;99.90;;;;;;5082605;28;20527;-77
2022/06/27 01:09:49;;;;;;;0.50;0.40;;;18.50;99.90;;;;;;5084122;28;20472;-79
2022/06/27 01:12:16;;;;;;;0.50;0.40;;;18.50;99.90;;;;;;5083243;28;20505;-79
2022/06/27 01:14:43;;;;;;;0.50;0.40;;;18.50;99.90;;;;;;5084286;28;20492;-80
2022/06/27 01:17:12;;;;;;;0.67;0.67;;;18.60;99.90;;;;;;5083265;28;20476;-80
2022/06/27 01:19:42;;;;;;;0.50;0.30;;;18.60;99.90;;;;;;5083004;28;20433;-80
2022/06/27 01:22:11;;;;;;;0.50;0.40;;;18.60;99.90;;;;;;5083420;28;20437;-80
2022/06/27 01:24:38;;;;;;;0.50;0.30;;;18.60;99.90;;;;;;5083908;28;20491;-80
2022/06/27 01:27:05;;;;;;;0.50;0.30;;;18.50;99.90;;;;;;5082848;28;20864;-79
2022/06/27 01:29:32;;;;;;;0.50;0.30;;;18.50;99.90;;;;;;5082866;28;20464;-80
2022/06/27 01:32:00;;;;;;;0.50;0.30;;;18.60;99.90;;;;;;5079507;28;20523;-79
2022/06/27 01:34:27;;;;;;;0.60;0.57;;;18.60;99.90;;;;;;5081779;28;20523;-78
2022/06/27 01:36:54;;;;;;;0.50;0.30;;;18.60;99.90;;;;;;5079840;28;20454;-79
2022/06/27 01:39:25;;;;;;;0.50;0.40;;;18.60;99.90;;;;;;5078917;28;20432;-79
2022/06/27 01:41:53;;;;;;;0.50;0.40;;;18.50;99.90;;;;;;5074877;28;20519;-79
2022/06/27 01:44:22;;;;;;;0.50;0.33;;;18.50;99.90;;;;;;5079033;28;20486;-80
2022/06/27 01:46:52;;;;;;;0.50;0.30;;;18.50;99.90;;;;;;5082868;28;20467;-79
2022/06/27 01:49:19;;;;;;;0.50;0.40;;;18.40;99.90;;;;;;5081881;28;20460;-79
2022/06/27 01:51:48;;;;;;;11.40;1.33;;;18.40;99.90;;;;;;5082244;28;20463;-80
2022/06/27 01:54:17;;;;;;;1.60;0.80;;;18.40;99.90;;;;;;5082856;28;20482;-80
2022/06/27 01:56:47;;;;;;;0.50;0.30;;;18.40;99.90;;;;;;5082809;28;20467;-80
2022/06/27 01:59:15;;;;;;;0.50;0.30;;;18.30;99.90;;;;;;5081865;28;20952;-80
2022/06/27 02:01:43;;;;;;;0.50;0.30;;;18.30;99.90;;;;;;5073992;28;20780;-79
2022/06/27 02:04:11;;;;;;;0.50;0.30;;;18.30;99.90;;;;;;5072010;28;20468;-78
2022/06/27 02:06:38;;;;;;;0.70;0.50;;;18.30;99.90;;;;;;5072343;28;20439;-79
2022/06/27 02:09:08;;;;;;;0.50;0.30;;;18.30;99.90;;;;;;5071089;28;20428;-79
2022/06/27 02:11:36;;;;;;;0.50;0.30;;;18.20;99.90;;;;;;5071740;28;20490;-79
2022/06/27 02:14:05;;;;;;;0.50;0.40;;;18.20;99.90;;;;;;5071672;28;20492;-79
2022/06/27 02:16:32;;;;;;;0.50;0.33;;;18.20;99.90;;;;;;5071510;28;20461;-79
2022/06/27 02:18:59;;;;;;;0.50;0.30;;;18.20;99.90;;;;;;5071069;28;20502;-78
2022/06/27 02:21:28;;;;;;;0.50;0.33;;;18.10;99.90;;;;;;5071814;28;20535;-80
2022/06/27 02:23:56;;;;;;;0.50;0.30;;;18.20;99.90;;;;;;5071938;28;20474;-78
2022/06/27 02:26:25;;;;;;;0.50;0.30;;;18.20;99.90;;;;;;5076146;28;20440;-79
2022/06/27 02:28:53;;;;;;;0.50;0.30;;;18.20;99.90;;;;;;5080680;28;20950;-80
2022/06/27 02:31:23;;;;;;;0.50;0.50;;;18.20;99.90;;;;;;5072997;28;20459;-79
2022/06/27 02:33:51;;;;;;;0.50;0.40;;;18.10;99.90;;;;;;5071538;28;20456;-77
2022/06/27 02:36:22;;;;;;;0.50;0.40;;;18.10;99.90;;;;;;5071122;28;20468;-79
2022/06/27 02:38:51;;;;;;;0.50;0.30;;;18.20;99.90;;;;;;5070990;28;20562;-79
2022/06/27 02:41:20;;;;;;;0.50;0.30;;;18.20;99.90;;;;;;5071174;28;20440;-79
2022/06/27 02:43:49;;;;;;;0.50;0.40;;;18.10;99.90;;;;;;5071483;28;20547;-79
2022/06/27 02:46:16;;;;;;;0.50;0.30;;;18.10;99.90;;;;;;5071211;28;20802;-79
2022/06/27 02:48:48;;;;;;;0.50;0.30;;;18.10;99.90;;;;;;5071124;28;20440;-78
2022/06/27 02:51:20;;;;;;;0.50;0.37;;;18.10;99.90;;;;;;5072281;28;20519;-77
2022/06/27 02:53:53;;;;;;;0.50;0.40;;;18.10;99.90;;;;;;5075704;28;20535;-79
2022/06/27 02:56:25;;;;;;;0.50;0.30;;;18.10;99.90;;;;;;5075134;28;20439;-79
2022/06/27 02:58:58;;;;;;;0.50;0.30;;;18.10;99.90;;;;;;5075169;28;20456;-79
2022/06/27 03:01:26;;;;;;;0.50;0.40;;;18.10;99.90;;;;;;5074642;28;20539;-79
2022/06/27 03:03:55;;;;;;;0.50;0.30;;;18.00;99.90;;;;;;5074748;28;20466;-79
2022/06/27 03:06:23;;;;;;;0.50;0.30;;;18.00;99.90;;;;;;5074999;28;20523;-79
2022/06/27 03:08:50;;;;;;;0.50;0.40;;;18.00;99.90;;;;;;5074919;28;20527;-79
2022/06/27 03:11:19;;;;;;;0.50;0.30;;;17.90;99.90;;;;;;5074702;28;20440;-79
2022/06/27 03:13:47;;;;;;;0.50;0.40;;;17.90;99.90;;;;;;5074790;28;20547;-78
2022/06/27 03:16:15;;;;;;;0.50;0.40;;;17.90;99.90;;;;;;5074237;28;20438;-78
2022/06/27 03:18:42;;;;;;;0.50;0.40;;;17.90;99.90;;;;;;5074331;28;20472;-79
2022/06/27 03:21:11;;;;;;;1.17;1.17;;;17.90;99.90;;;;;;5074734;28;20529;-75
2022/06/27 03:23:38;;;;;;;0.50;0.40;;;17.90;99.90;;;;;;5074560;28;20977;-79
2022/06/27 03:26:06;;;;;;;0.50;0.40;;;17.90;99.90;;;;;;5073853;28;20456;-77
2022/06/27 03:28:33;;;;;;;0.90;0.60;;;17.90;99.90;;;;;;5073574;28;20446;-79
2022/06/27 03:31:00;;;;;;;0.50;0.30;;;17.90;99.90;;;;;;5074348;28;20484;-78
2022/06/27 03:33:26;;;;;;;0.50;0.40;;;17.90;99.90;;;;;;5074470;28;20455;-77
2022/06/27 03:35:53;;;;;;;0.50;0.40;;;17.90;99.90;;;;;;5074262;28;20440;-77
2022/06/27 03:38:21;;;;;;;0.87;0.87;;;17.90;99.90;;;;;;5073542;28;20471;-78
2022/06/27 03:40:48;;;;;;;0.50;0.40;;;17.90;99.90;;;;;;5074196;28;20785;-79
2022/06/27 03:43:15;;;;;;;0.50;0.30;;;17.90;99.90;;;;;;5074061;28;20539;-79
2022/06/27 03:45:42;;;;;;;0.50;0.30;;;17.90;99.90;;;;;;5074287;28;20432;-78
2022/06/27 03:49:59;;;;;;;0.50;0.30;;;17.80;99.90;;;;;;5073830;28;20519;-78
2022/06/27 03:50:55;;;;;;;0.50;0.40;;;17.80;99.90;;;;;;5073587;28;20440;-79
2022/06/27 03:53:23;;;;;;;0.50;0.40;;;17.70;99.90;;;;;;5073749;28;20466;-78
2022/06/27 03:55:50;;;;;;;0.50;0.47;;;17.70;99.90;;;;;;5073865;28;20491;-78
2022/06/27 03:58:17;;;;;;;0.50;0.30;;;17.70;99.90;;;;;;5073429;28;21214;-78
2022/06/27 04:00:44;;;;;;;0.50;0.30;;;17.70;99.90;;;;;;5073754;28;20472;-77
2022/06/27 04:03:11;;;;;;;0.50;0.30;;;17.70;99.90;;;;;;5072407;28;20540;-78
2022/06/27 04:05:38;;;;;;;0.50;0.40;;;17.80;99.90;;;;;;5073524;28;20439;-78
2022/06/27 04:08:06;;;;;;;0.50;0.40;;;17.80;99.90;;;;;;5073315;28;20524;-74
2022/06/27 04:10:34;;;;;;;0.50;0.40;;;17.90;99.90;;;;;;5073414;28;20436;-77
2022/06/27 04:13:01;;;;;;;0.50;0.40;;;17.90;99.90;;;;;;5073139;28;20539;-78
2022/06/27 04:15:28;;;;;;;0.50;0.40;;;17.90;99.90;;;;;;5073543;28;20446;-77
2022/06/27 04:17:55;;;;;;;0.50;0.30;;;17.90;99.90;;;;;;5072972;28;20505;-78
2022/06/27 04:20:22;;;;;;;0.50;0.30;;;17.90;99.90;;;;;;5072846;28;20531;-76
2022/06/27 04:22:48;;;;;;;0.50;0.30;;;17.90;99.90;;;;;;5073504;28;20451;-78
2022/06/27 04:25:15;;;;;;;0.50;0.40;;;17.90;99.90;;;;;;5072828;28;21045;-78
2022/06/27 04:27:44;;;;;;;0.50;0.30;;;17.90;99.90;;;;;;5072235;28;20567;-78
2022/06/27 04:30:16;;;;;;;0.50;0.30;;;17.90;99.90;;;;;;5072749;28;20519;-76
2022/06/27 04:32:43;;;;;;;0.50;0.30;;;18.00;99.90;;;;;;5073039;28;20412;-78
2022/06/27 04:35:11;;;;;;;0.50;0.30;;;17.90;99.90;;;;;;5074580;28;20498;-76
2022/06/27 04:37:41;;;;;;;0.50;0.30;;;18.00;99.90;;;;;;5073021;28;20438;-78
2022/06/27 04:40:10;;;;;;;0.50;0.40;;;18.00;99.90;;;;;;5073066;28;20440;-75
2022/06/27 04:42:37;;;;;;;0.50;0.30;;;18.00;99.90;;;;;;5072960;28;20440;-78
2022/06/27 04:45:09;;;;;;;0.50;0.40;;;18.10;99.90;;;;;;5072374;28;21028;-77
2022/06/27 04:47:38;;;;;;;0.50;0.30;;;18.10;99.90;;;;;;5072366;28;20483;-77
2022/06/27 04:50:08;;;;;;;0.50;0.40;;;18.10;99.90;;;;;;5072390;28;20523;-78
2022/06/27 04:52:35;;;;;;;0.50;0.30;;;18.20;99.90;;;;;;5072577;28;20436;-77
2022/06/27 04:55:02;;;;;;;0.50;0.30;;;18.20;99.90;;;;;;5072617;28;20543;-74
2022/06/27 04:57:31;;;;;;;0.50;0.30;;;18.10;99.90;;;;;;5072167;28;20434;-78
2022/06/27 04:59:58;;;;;;;0.50;0.40;;;18.10;99.90;;;;;;5072351;28;21003;-77
2022/06/27 05:02:26;;;;;;;0.50;0.30;;;18.00;99.90;;;;;;5072334;28;20436;-78
2022/06/27 05:04:53;;;;;;;0.50;0.40;;;18.00;99.90;;;;;;5072310;28;20547;-78
2022/06/27 05:07:22;;;;;;;0.50;0.30;;;17.90;99.90;;;;;;5072341;28;20432;-78
2022/06/27 05:09:48;;;;;;;0.50;0.40;;;17.90;99.90;;;;;;5071914;28;20442;-77
2022/06/27 05:12:15;;;;;;;0.50;0.30;;;17.80;99.90;;;;;;5071965;28;20448;-78
2022/06/27 05:14:42;;;;;;;0.80;0.80;;;17.80;99.90;;;;;;5072487;28;20507;-78
2022/06/27 05:17:09;;;;;;;0.50;0.30;;;17.80;99.90;;;;;;5072800;28;20815;-76
2022/06/27 05:19:37;;;;;;;0.50;0.30;;;17.80;99.90;;;;;;5071775;28;20483;-78
2022/06/27 05:22:04;;;;;;;0.50;0.30;;;17.90;99.90;;;;;;5072513;28;20506;-79
2022/06/27 05:24:31;;;;;;;1.20;1.17;;;17.90;99.90;;;;;;5071919;28;20460;-78
2022/06/27 05:26:58;;;;;;;0.50;0.30;;;18.00;99.90;;;;;;5071044;28;20472;-77
2022/06/27 05:29:25;;;;;;;0.50;0.30;;;18.20;99.90;;;;;;5071620;28;20956;-79
2022/06/27 05:31:52;;;;;;;0.50;0.30;;;18.30;99.90;;;;;;5071457;28;20868;-78
2022/06/27 05:34:19;;;;;;;0.50;0.30;;;18.40;99.90;;;;;;5072599;28;20460;-78
2022/06/27 05:36:48;;;;;;;0.50;0.30;;;18.50;99.90;;;;;;5072031;28;20425;-77
2022/06/27 05:39:15;;;;;;;0.50;0.30;;;18.40;99.90;;;;;;5071523;28;20475;-78
2022/06/27 05:41:43;;;;;;;0.50;0.40;;;18.50;99.90;;;;;;5071783;28;20440;-77
2022/06/27 05:44:09;;;;;;;0.90;0.90;;;18.60;99.90;;;;;;5072054;28;20530;-78
2022/06/27 05:46:37;;;;;;;0.50;0.30;;;18.80;99.90;;;;;;5072020;28;20497;-78
2022/06/27 05:49:04;;;;;;;0.50;0.30;;;19.00;99.90;;;;;;5071400;28;20441;-78
2022/06/27 05:51:32;;;;;;;0.50;0.30;;;19.00;99.90;;;;;;5071279;28;20527;-77
2022/06/27 05:54:01;;;;;;;0.50;0.30;;;19.10;99.90;;;;;;5071723;28;20472;-78
2022/06/27 05:56:28;;;;;;;1.83;1.73;;;19.20;99.90;;;;;;5071482;28;20637;-78
2022/06/27 05:58:57;;;;;;;0.50;0.30;;;19.20;99.90;;;;;;5070863;28;20471;-78
2022/06/27 06:01:25;;;;;;;0.50;0.40;;;19.20;99.90;;;;;;5071592;28;20949;-77
2022/06/27 06:03:53;;;;;;;0.50;0.40;;;19.00;99.90;;;;;;5071438;28;20465;-79
2022/06/27 06:06:21;;;;;;;0.50;0.30;;;18.90;99.90;;;;;;5142427;22;20540;-83
2022/06/27 06:08:48;;;;;;;0.50;0.30;;;18.90;99.90;;;;;;5102865;28;20434;-86
2022/06/27 06:11:16;;;;;;;0.50;0.40;;;18.90;99.90;;;;;;5108742;28;20430;-84
2022/06/27 06:13:43;;;;;;;0.50;0.30;;;18.90;99.90;;;;;;5116877;28;20871;-85
2022/06/27 06:16:10;;;;;;;0.50;0.30;;;18.90;99.90;;;;;;5117647;28;20458;-83
2022/06/27 06:18:37;;;;;;;0.50;0.30;;;18.80;99.90;;;;;;5117055;28;20480;-85
2022/06/27 06:21:05;;;;;;;0.50;0.30;;;18.70;99.90;;;;;;5117249;28;20959;-85
2022/06/27 06:23:33;;;;;;;0.50;0.30;;;18.70;99.90;;;;;;5117412;28;21052;-84
2022/06/27 06:26:01;;;;;;;0.50;0.40;;;18.90;99.90;;;;;;5116973;28;20461;-85
2022/06/27 06:28:32;;;;;;;4.00;2.10;;;19.00;99.90;;;;;;5116597;28;20434;-85
2022/06/27 06:30:59;;;;;;;0.50;0.37;;;19.10;99.90;;;;;;5116852;28;20805;-86
2022/06/27 06:33:26;;;;;;;1.17;1.07;;;19.20;99.90;;;;;;5116832;28;20863;-85
2022/06/27 06:35:54;;;;;;;0.50;0.30;;;19.30;99.90;;;;;;5116974;28;20485;-86
2022/06/27 06:38:22;;;;;;;0.50;0.40;;;19.40;99.90;;;;;;5116899;28;20461;-86
2022/06/27 06:40:48;;;;;;;0.50;0.30;;;19.60;99.90;;;;;;5117130;28;20430;-83
2022/06/27 06:43:15;;;;;;;0.50;0.30;;;19.80;99.90;;;;;;5116136;28;20469;-86
2022/06/27 06:45:44;;;;;;;0.50;0.30;;;20.00;99.90;;;;;;5117149;28;20497;-85
2022/06/27 06:48:13;;;;;;;0.50;0.30;;;20.00;99.90;;;;;;5116437;28;20430;-86
2022/06/27 06:50:41;;;;;;;0.50;0.40;;;19.90;99.90;;;;;;5117667;28;20788;-85
2022/06/27 06:53:08;;;;;;;0.50;0.30;;;20.00;99.90;;;;;;5117476;28;20438;-86
2022/06/27 06:55:35;;;;;;;0.50;0.40;;;20.10;99.90;;;;;;5116394;28;20464;-85
2022/06/27 06:58:02;;;;;;;0.50;0.30;;;20.20;99.90;;;;;;5116827;28;20474;-85
2022/06/27 07:00:28;;;;;;;0.50;0.40;;;20.20;99.90;;;;;;5117143;28;20571;-85
2022/06/27 07:02:58;;;;;;;0.50;0.30;;;20.20;99.90;;;;;;5116563;28;20522;-86
2022/06/27 07:05:25;;;;;;;0.50;0.40;;;20.20;99.90;;;;;;5117059;28;20484;-85
2022/06/27 07:07:53;;;;;;;0.50;0.30;;;20.10;99.90;;;;;;5117598;28;20446;-84
2022/06/27 07:10:22;;;;;;;0.50;0.30;;;20.00;99.90;;;;;;5116354;28;20451;-84
2022/06/27 07:12:50;;;;;;;0.60;0.60;;;20.00;99.90;;;;;;5118080;28;20438;-84
2022/06/27 07:15:17;;;;;;;0.50;0.30;;;19.90;99.90;;;;;;5116575;28;20461;-85
2022/06/27 07:17:46;;;;;;;0.50;0.33;;;19.90;99.90;;;;;;5116175;28;20462;-80
2022/06/27 07:20:19;;;;;;;0.70;0.67;;;20.00;99.90;;;;;;5117200;28;20474;-85
2022/06/27 07:22:46;;;;;;;0.50;0.40;;;19.90;99.90;;;;;;5117014;28;20437;-85
2022/06/27 07:25:13;;;;;;;2.37;2.20;;;19.90;99.90;;;;;;5116495;28;20545;-84
2022/06/27 07:27:42;;;;;;;0.50;0.40;;;20.00;99.90;;;;;;5116483;28;20509;-84
2022/06/27 07:30:11;;;;;;;0.50;0.40;;;20.00;99.90;;;;;;5116514;28;20438;-85
2022/06/27 07:32:39;;;;;;;0.50;0.33;;;20.00;99.90;;;;;;5116899;28;20442;-85
2022/06/27 07:35:07;;;;;;;0.50;0.30;;;20.00;99.90;;;;;;5116212;28;20465;-83
2022/06/27 07:37:36;;;;;;;0.50;0.30;;;20.20;99.90;;;;;;5116951;28;20438;-84
2022/06/27 07:40:04;;;;;;;0.50;0.30;;;20.20;99.90;;;;;;5119920;28;20470;-84
2022/06/27 07:42:31;;;;;;;0.50;0.33;;;20.30;99.90;;;;;;5120551;28;20800;-86
2022/06/27 07:44:58;;;;;;;0.50;0.30;;;20.40;99.90;;;;;;5120029;28;20473;-82
2022/06/27 07:47:25;;;;;;;0.50;0.30;;;20.40;99.90;;;;;;5120730;28;20483;-85
2022/06/27 07:49:52;;;;;;;0.50;0.30;;;20.50;99.90;;;;;;5120527;28;20446;-84
2022/06/27 07:52:19;;;;;;;0.50;0.30;;;20.60;99.90;;;;;;5120828;28;20506;-84
2022/06/27 07:54:48;;;;;;;0.50;0.40;;;20.70;99.90;;;;;;5120536;28;20487;-86
2022/06/27 07:57:15;;;;;;;0.50;0.30;;;20.70;99.90;;;;;;5120093;28;20464;-83
2022/06/27 07:59:42;;;;;;;0.50;0.30;;;20.70;99.90;;;;;;5119045;28;20513;-85
2022/06/27 08:02:10;;;;;;;0.70;0.70;;;20.70;99.90;;;;;;5120472;28;20558;-86
2022/06/27 08:04:37;;;;;;;0.50;0.30;;;20.80;99.90;;;;;;5119384;28;20430;-86
2022/06/27 08:07:04;;;;;;;0.50;0.30;;;20.90;99.90;;;;;;5119652;28;20449;-86
2022/06/27 08:09:31;;;;;;;0.50;0.30;;;21.00;99.90;;;;;;5119251;28;20533;-86
2022/06/27 08:12:01;;;;;;;0.60;0.40;;;21.10;99.90;;;;;;5120121;28;20490;-85
2022/06/27 08:14:28;;;;;;;0.50;0.30;;;21.00;99.90;;;;;;5120295;28;20426;-86
2022/06/27 08:16:56;;;;;;;0.60;0.40;;;21.10;99.90;;;;;;5119819;28;20478;-85
2022/06/27 08:19:23;;;;;;;0.50;0.40;;;21.00;99.90;;;;;;5119251;28;20466;-85
2022/06/27 08:21:50;;;;;;;0.50;0.30;;;20.90;99.90;;;;;;5120198;28;20441;-81
2022/06/27 08:24:17;;;;;;;0.77;0.77;;;20.60;99.90;;;;;;5118783;28;21037;-83
2022/06/27 08:26:46;;;;;;;0.50;0.30;;;20.60;99.90;;;;;;5120006;28;21009;-85
2022/06/27 08:29:15;;;;;;;0.50;0.30;;;20.60;99.90;;;;;;5119511;28;20479;-84
2022/06/27 08:31:44;;;;;;;0.50;0.40;;;20.60;99.90;;;;;;5120863;28;20719;-84
2022/06/27 08:34:12;;;;;;;0.50;0.40;;;20.60;99.90;;;;;;5119088;28;20447;-80
2022/06/27 08:36:40;;;;;;;0.50;0.30;;;20.60;99.90;;;;;;5119891;28;20600;-85
2022/06/27 08:39:11;;;;;;;0.50;0.50;;;20.60;99.90;;;;;;5120028;28;20435;-86
2022/06/27 08:41:39;;;;;;;0.50;0.30;;;20.60;99.90;;;;;;5119795;28;20434;-83
2022/06/27 08:44:07;;;;;;;0.50;0.40;;;20.60;99.90;;;;;;5120451;28;20446;-85
2022/06/27 08:46:35;;;;;;;0.50;0.30;;;20.50;99.90;;;;;;5119236;28;20511;-81
2022/06/27 08:49:03;;;;;;;0.50;0.40;;;20.40;99.90;;;;;;5118685;28;20437;-86
2022/06/27 08:51:31;;;;;;;0.50;0.30;;;20.40;99.90;;;;;;5119771;28;20438;-86
2022/06/27 08:53:58;;;;;;;0.50;0.30;;;20.40;99.90;;;;;;5119696;28;20427;-86
2022/06/27 08:56:27;;;;;;;0.50;0.37;;;20.40;99.90;;;;;;5119589;28;20450;-86
2022/06/27 08:58:55;;;;;;;0.50;0.30;;;20.40;99.90;;;;;;5119414;28;20541;-85
2022/06/27 09:01:27;;;;;;;0.50;0.30;;;20.40;99.90;;;;;;5119482;28;20445;-87
2022/06/27 09:04:00;;;;;;;0.50;0.30;;;20.40;99.90;;;;;;5119409;28;20838;-82
2022/06/27 09:06:29;;;;;;;0.50;0.40;;;20.40;99.90;;;;;;5119470;28;20469;-84
2022/06/27 09:09:05;;;;;;;0.50;0.40;;;20.40;99.90;;;;;;5119078;28;20449;-86
2022/06/27 09:11:35;;;;;;;0.50;0.40;;;20.40;99.90;;;;;;5125526;28;20414;-83
2022/06/27 09:14:03;;;;;;;0.50;0.40;;;20.20;99.90;;;;;;5121872;28;20529;-86
2022/06/27 09:16:30;;;;;;;0.50;0.30;;;20.20;99.90;;;;;;5121339;28;20589;-84
2022/06/27 09:18:59;;;;;;;0.50;0.30;;;20.20;99.90;;;;;;5119387;28;20480;-83
2022/06/27 09:21:27;;;;;;;0.50;0.30;;;20.30;99.90;;;;;;5119050;28;20524;-85
2022/06/27 09:23:55;;;;;;;0.50;0.30;;;20.30;99.90;;;;;;5119381;28;20561;-85
2022/06/27 09:26:25;;;;;;;0.50;0.30;;;20.40;99.90;;;;;;5119618;28;20522;-83
2022/06/27 09:28:54;;;;;;;0.60;0.40;;;20.40;99.90;;;;;;5118535;28;20442;-83
2022/06/27 09:31:36;;;;;;;0.50;0.30;;;20.40;99.90;;;;;;5118300;28;20450;-84
2022/06/27 09:34:08;;;;;;;0.50;0.40;;;20.50;99.90;;;;;;5117795;28;20419;-82
2022/06/27 09:36:36;;;;;;;0.50;0.30;;;20.50;99.90;;;;;;5118423;28;20450;-87
2022/06/27 09:39:07;;;;;;;0.90;0.90;;;20.40;99.90;;;;;;5118370;28;20927;-85
2022/06/27 09:41:36;;;;;;;0.50;0.40;;;20.30;99.90;;;;;;5118757;28;20470;-82
2022/06/27 09:44:10;;;;;;;0.50;0.30;;;20.40;99.90;;;;;;5118557;28;20446;-84
2022/06/27 09:46:42;;;;;;;0.50;0.50;;;20.40;99.90;;;;;;5118054;28;20480;-86
2022/06/27 09:49:15;;;;;;;0.50;0.30;;;20.40;99.90;;;;;;5118073;28;20435;-84
2022/06/27 09:51:43;;;;;;;0.50;0.30;;;20.40;99.90;;;;;;5118672;28;20897;-83
2022/06/27 09:54:11;;;;;;;0.50;0.30;;;20.40;99.90;;;;;;5119244;28;20435;-84
2022/06/27 09:56:41;;;;;;;0.50;0.30;;;20.40;99.90;;;;;;5119018;28;20458;-84
2022/06/27 09:59:11;;;;;;;0.50;0.30;;;20.60;99.90;;;;;;5118335;28;20489;-84
2022/06/27 10:01:40;;;;;;;0.50;0.30;;;20.70;99.90;;;;;;5118723;28;20840;-84
2022/06/27 10:04:10;;;;;;;0.73;0.73;;;21.00;99.90;;;;;;5119070;28;20552;-84
2022/06/27 10:06:39;;;;;;;0.50;0.40;;;21.30;99.90;;;;;;5117867;28;20466;-83
2022/06/27 10:09:08;;;;;;;1.47;0.50;;;21.70;99.90;;;;;;5118115;28;20439;-83
2022/06/27 10:11:36;;;;;;;0.60;0.40;;;22.10;99.90;;;;;;5118585;28;20422;-84
2022/06/27 10:14:20;;;;;;;0.50;0.30;;;22.40;99.90;;;;;;5118291;28;20487;-84
2022/06/27 10:16:55;;;;;;;0.50;0.40;;;22.70;99.90;;;;;;5118929;28;20515;-85
2022/06/27 10:19:25;;;;;;;0.50;0.33;;;23.00;99.90;;;;;;5118085;28;20526;-84
2022/06/27 10:21:53;;;;;;;0.50;0.40;;;23.20;99.90;;;;;;5117860;28;20461;-85
2022/06/27 10:24:36;;;;;;;0.50;0.30;;;23.70;99.90;;;;;;5119279;28;20446;-85
2022/06/27 10:27:06;;;;;;;0.50;0.40;;;24.40;99.90;;;;;;5118428;28;20488;-85
2022/06/27 10:29:34;;;;;;;1.20;1.10;;;24.50;99.90;;;;;;5119253;28;20849;-83
2022/06/27 10:32:03;;;;;;;0.50;0.30;;;25.00;99.90;;;;;;5118772;28;20466;-84
2022/06/27 10:35:09;;;;;;;0.50;0.30;;;25.30;99.90;;;;;;5118630;28;20982;-85
2022/06/27 10:37:37;;;;;;;0.50;0.30;;;25.80;99.90;;;;;;5118086;28;20422;-85
2022/06/27 10:40:52;;;;;;;1.27;1.17;;;25.80;99.90;;;;;;5118824;28;20534;-86
2022/06/27 10:43:42;;;;;;;0.50;0.30;;;25.70;99.90;;;;;;5118036;28;20435;-85
2022/06/27 10:46:41;;;;;;;0.50;0.30;;;25.50;99.90;;;;;;5118820;28;20557;-86
2022/06/27 10:49:23;;;;;;;0.50;0.40;;;25.30;99.90;;;;;;5083418;28;20499;-85
2022/06/27 10:51:52;;;;;;;0.50;0.30;;;25.20;99.90;;;;;;5118590;28;20418;-82
2022/06/27 10:54:19;;;;;;;1.53;1.43;;;24.70;99.90;;;;;;5118385;28;20465;-85
2022/06/27 10:56:49;;;;;;;0.50;0.33;;;24.30;99.90;;;;;;5118113;28;20450;-83
2022/06/27 11:00:04;;;;;;;0.80;0.60;;;24.00;99.90;;;;;;5118167;28;20442;-84
2022/06/27 11:02:33;;;;;;;0.60;0.60;;;23.90;99.90;;;;;;5118368;28;20430;-85
2022/06/27 11:05:00;;;;;;;1.80;1.70;;;23.70;99.90;;;;;;5116966;28;21006;-83
2022/06/27 11:07:29;;;;;;;1.60;1.60;;;23.30;99.90;;;;;;5117290;28;20441;-85
2022/06/27 11:09:56;;;;;;;0.50;0.30;;;23.00;99.90;;;;;;5117184;28;20820;-84
2022/06/27 11:12:33;;;;;;;0.50;0.30;;;22.80;99.90;;;;;;5118074;28;20441;-84
2022/06/27 11:15:00;;;;;;;0.50;0.30;;;22.80;99.90;;;;;;5121946;28;20513;-86
2022/06/27 11:17:32;;;;;;;1.40;1.00;;;22.80;99.90;;;;;;5121169;28;20520;-86
2022/06/27 11:20:14;;;;;;;0.77;0.77;;;22.80;99.90;;;;;;5120863;28;20438;-84
2022/06/27 11:22:43;;;;;;;0.50;0.30;;;22.70;99.90;;;;;;5120523;28;20434;-85
2022/06/27 11:25:11;;;;;;;0.50;0.30;;;22.60;99.90;;;;;;5121568;28;20518;-85
2022/06/27 11:27:53;;;;;;;0.50;0.40;;;22.60;99.90;;;;;;5119606;28;20437;-86
2022/06/27 11:33:15;;;;;;;0.50;0.30;;;22.60;99.90;;;;;;5120913;28;20556;-84
2022/06/27 11:35:42;;;;;;;0.50;0.30;;;22.40;99.90;;;;;;5120058;28;20490;-81
2022/06/27 11:38:11;;;;;;;0.50;0.30;;;22.20;99.90;;;;;;5120674;28;20525;-86
2022/06/27 11:40:38;;;;;;;0.50;0.30;;;22.00;99.90;;;;;;5120918;28;20549;-85
2022/06/27 11:43:05;;;;;;;0.60;0.60;;;21.80;99.90;;;;;;5120610;28;20513;-84
2022/06/27 11:45:40;;;;;;;0.87;0.77;;;21.60;99.90;;;;;;5121612;28;20537;-85
2022/06/27 11:48:14;;;;;;;0.50;0.30;;;21.30;99.90;;;;;;5119971;28;20445;-85
2022/06/27 11:50:42;;;;;;;0.50;0.40;;;21.10;99.90;;;;;;5120403;28;20430;-85
2022/06/27 11:53:10;;;;;;;0.50;0.30;;;20.90;99.90;;;;;;5120688;28;20431;-84
2022/06/27 11:55:37;;;;;;;0.50;0.30;;;20.80;99.90;;;;;;5120858;28;20450;-84
2022/06/27 11:58:04;;;;;;;0.50;0.30;;;20.70;99.90;;;;;;5118355;28;20443;-86
2022/06/27 12:00:33;;;;;;;0.80;0.80;;;20.70;99.90;;;;;;5120769;28;20470;-85
2022/06/27 12:03:05;;;;;;;0.50;0.30;;;20.80;99.90;;;;;;5121201;28;20462;-85
2022/06/27 12:08:11;;;;;;;0.50;0.30;;;20.90;99.90;;;;;;5132735;22;20911;-78
2022/06/27 12:10:45;;;;;;;0.50;0.30;;;21.00;99.90;;;;;;5078948;28;20436;-79
2022/06/27 12:13:14;;;;;;;0.60;0.60;;;21.30;99.90;;;;;;5094080;28;20797;-79
2022/06/27 12:15:43;;;;;;;1.40;1.30;;;21.60;99.90;;;;;;5094347;28;20523;-79
2022/06/27 12:18:12;;;;;;;0.50;0.30;;;22.20;99.90;;;;;;5073138;28;20436;-78
2022/06/27 12:20:41;;;;;;;0.50;0.40;;;22.90;99.90;;;;;;5072860;28;20505;-78
2022/06/27 12:23:09;;;;;;;1.10;0.97;;;23.40;99.90;;;;;;5074899;28;20436;-79
2022/06/27 12:25:36;;;;;;;0.50;0.30;;;23.90;99.90;;;;;;5073607;28;20471;-79
2022/06/27 12:28:05;;;;;;;0.50;0.30;;;24.40;99.90;;;;;;5073372;28;20567;-79
2022/06/27 12:30:32;;;;;;;0.50;0.40;;;24.90;99.90;;;;;;5073215;28;20445;-79
2022/06/27 12:32:59;;;;;;;0.50;0.30;;;25.00;99.90;;;;;;5076585;28;20538;-78
2022/06/27 12:35:26;;;;;;;0.50;0.30;;;25.10;99.90;;;;;;5073520;28;20444;-79
2022/06/27 12:37:59;;;;;;;0.60;0.50;;;25.10;99.90;;;;;;5072998;28;20460;-78
2022/06/27 12:40:28;;;;;;;0.50;0.30;;;25.10;99.90;;;;;;5073309;28;20486;-78
2022/06/27 12:42:55;;;;;;;0.50;0.30;;;24.90;99.90;;;;;;5072601;28;20527;-75
2022/06/27 12:45:22;;;;;;;0.50;0.30;;;24.90;99.90;;;;;;5072803;28;20524;-78
2022/06/27 12:47:48;;;;;;;0.50;0.30;;;24.70;99.90;;;;;;5072601;28;20460;-76
2022/06/27 12:50:16;;;;;;;0.80;0.70;;;24.60;99.90;;;;;;5072833;28;20531;-77
2022/06/27 12:52:43;;;;;;;2.20;1.50;;;24.20;99.90;;;;;;5072455;28;20441;-77
2022/06/27 12:55:10;;;;;;;0.50;0.40;;;23.70;99.90;;;;;;5072013;28;21033;-77
2022/06/27 12:57:39;;;;;;;1.53;1.43;;;23.70;99.90;;;;;;5072229;28;20933;-78
2022/06/27 13:00:07;;;;;;;0.50;0.30;;;23.80;99.90;;;;;;5072641;28;20534;-77
2022/06/27 13:02:34;;;;;;;1.27;0.67;;;23.90;99.90;;;;;;5072042;28;20475;-77